createdAt,value
2019-01-06T00:01:45.713Z,103011.31
2019-01-06T00:04:33.705Z,103009.67
2019-01-06T00:07:04.892Z,103008.41
2019-01-06T00:09:36.088Z,103011.89
2019-01-06T00:12:07.373Z,103013.66
2019-01-06T00:14:55.430Z,103012.98
2019-01-06T00:17:43.603Z,103012.50
2019-01-06T00:20:14.514Z,103014.91
2019-01-06T00:22:54.836Z,103011.62
2019-01-06T00:25:35.415Z,103009.23
2019-01-06T00:28:19.220Z,103011.83
2019-01-06T00:30:52.908Z,103007.76
2019-01-06T00:33:36.150Z,103001.11
2019-01-06T00:36:20.036Z,103006.70
2019-01-06T00:38:57.300Z,103013.73
2019-01-06T00:41:28.584Z,103010.05
2019-01-06T00:44:02.403Z,103011.98
2019-01-06T00:46:40.005Z,103014.21
2019-01-06T00:49:24.891Z,103012.27
2019-01-06T00:51:56.225Z,103009.37
2019-01-06T00:54:27.171Z,103019.63
2019-01-06T00:57:05.230Z,103018.75
2019-01-06T00:59:42.545Z,103011.50
2019-01-06T01:02:13.815Z,103017.22
2019-01-06T01:05:06.889Z,103014.03
2019-01-06T01:07:50.298Z,103014.99
2019-01-06T01:10:25.331Z,103016.14
2019-01-06T01:12:59.961Z,103009.28
2019-01-06T01:15:37.763Z,103015.95
2019-01-06T01:18:21.409Z,103014.69
2019-01-06T01:21:01.517Z,103016.89
2019-01-06T01:23:45.561Z,103014.67
2019-01-06T01:26:33.745Z,103015.03
2019-01-06T01:29:21.520Z,103014.73
2019-01-06T01:32:07.849Z,103019.36
2019-01-06T01:34:39.144Z,103022.36
2019-01-06T01:37:28.763Z,103021.70
2019-01-06T01:40:15.417Z,103027.29
2019-01-06T01:42:46.833Z,103018.30
2019-01-06T01:45:18.126Z,103019.45
2019-01-06T01:47:58.959Z,103015.88
2019-01-06T01:50:39.332Z,103005.63
2019-01-06T01:53:19.927Z,103007.67
2019-01-06T01:56:03.354Z,103007.46
2019-01-06T01:58:51.172Z,103006.77
2019-01-06T02:01:37.180Z,103006.47
2019-01-06T02:04:26.812Z,103004.81
2019-01-06T02:07:06.931Z,103004.91
2019-01-06T02:09:50.069Z,103008.38
2019-01-06T02:12:36.027Z,103009.13
2019-01-06T02:15:09.007Z,103001.67
2019-01-06T02:17:49.354Z,103015.53
2019-01-06T02:20:27.451Z,103022.46
2019-01-06T02:23:13.468Z,103025.28
2019-01-06T02:25:50.748Z,103024.02
2019-01-06T02:28:27.840Z,103027.67
2019-01-06T02:31:17.441Z,103026.67
2019-01-06T02:33:56.496Z,103019.39
2019-01-06T02:36:27.420Z,103026.23
2019-01-06T02:39:10.704Z,103026.70
2019-01-06T02:41:53.529Z,103030.84
2019-01-06T02:44:31.101Z,103026.91
2019-01-06T02:47:16.686Z,103025.64
2019-01-06T02:49:57.421Z,103026.13
2019-01-06T02:52:31.015Z,103024.86
2019-01-06T02:55:07.951Z,103026.86
2019-01-06T02:57:45.572Z,103032.82
2019-01-06T03:00:26.123Z,103027.67
2019-01-06T03:03:03.326Z,103016.29
2019-01-06T03:05:34.170Z,103024.87
2019-01-06T03:08:04.969Z,103023.77
2019-01-06T03:10:36.121Z,103019.33
2019-01-06T03:13:07.118Z,103022.11
2019-01-06T03:15:44.661Z,103014.97
2019-01-06T03:18:25.016Z,103021.41
2019-01-06T03:21:13.325Z,103013.55
2019-01-06T03:24:01.459Z,103014.91
2019-01-06T03:26:50.153Z,103020.11
2019-01-06T03:29:21.239Z,103007.26
2019-01-06T03:31:55.322Z,103012.98
2019-01-06T03:34:26.478Z,103013.55
2019-01-06T03:36:57.595Z,103006.02
2019-01-06T03:39:46.845Z,103004.83
2019-01-06T03:42:27.277Z,103003.88
2019-01-06T03:44:58.624Z,103004.34
2019-01-06T03:47:32.333Z,103000.78
2019-01-06T03:50:10.292Z,103001.25
2019-01-06T03:52:58.168Z,102994.15
2019-01-06T03:55:41.666Z,102994.43
2019-01-06T03:58:12.928Z,102988.55
2019-01-06T04:00:56.215Z,102981.02
2019-01-06T04:03:27.434Z,102986.61
2019-01-06T04:06:11.211Z,102978.21
2019-01-06T04:08:52.123Z,102982.42
2019-01-06T04:11:40.147Z,102984.73
2019-01-06T04:14:17.315Z,102986.77
2019-01-06T04:17:04.306Z,102976.92
2019-01-06T04:19:38.399Z,102976.53
2019-01-06T04:22:12.202Z,102975.42
2019-01-06T04:24:58.377Z,102975.66
2019-01-06T04:27:39.349Z,102979.31
2019-01-06T04:30:10.605Z,102975.83
2019-01-06T04:32:41.775Z,102979.95
2019-01-06T04:35:29.755Z,102979.00
2019-01-06T04:38:01.026Z,102971.78
2019-01-06T04:40:49.093Z,102969.17
2019-01-06T04:43:20.304Z,102966.59
2019-01-06T04:46:00.793Z,102963.89
2019-01-06T04:48:49.125Z,102961.67
2019-01-06T04:51:26.692Z,102955.17
2019-01-06T04:54:13.528Z,102955.89
2019-01-06T04:56:49.123Z,102959.14
2019-01-06T04:59:38.026Z,102961.05
2019-01-06T05:02:21.524Z,102954.47
2019-01-06T05:04:52.639Z,102949.74
2019-01-06T05:07:39.319Z,102949.91
2019-01-06T05:10:20.731Z,102959.81
2019-01-06T05:12:51.973Z,102955.77
2019-01-06T05:15:29.889Z,102951.48
2019-01-06T05:18:07.930Z,102956.56
2019-01-06T05:20:48.433Z,102951.25
2019-01-06T05:23:20.065Z,102948.16
2019-01-06T05:26:03.912Z,102951.80
2019-01-06T05:28:52.977Z,102949.38
2019-01-06T05:31:24.237Z,102951.36
2019-01-06T05:33:55.567Z,102946.76
2019-01-06T05:36:27.012Z,102950.08
2019-01-06T05:38:58.223Z,102944.30
2019-01-06T05:41:46.297Z,102939.78
2019-01-06T05:44:23.708Z,102941.05
2019-01-06T05:47:05.390Z,102944.06
2019-01-06T05:49:52.146Z,102936.06
2019-01-06T05:52:32.639Z,102931.47
2019-01-06T05:55:10.182Z,102934.23
2019-01-06T05:57:53.994Z,102939.23
2019-01-06T06:00:25.217Z,102929.95
2019-01-06T06:02:56.072Z,102935.42
2019-01-06T06:05:27.512Z,102935.61
2019-01-06T06:08:06.441Z,102939.88
2019-01-06T06:10:50.083Z,102941.14
2019-01-06T06:13:21.150Z,102941.38
2019-01-06T06:15:56.386Z,102941.84
2019-01-06T06:18:45.203Z,102944.14
2019-01-06T06:21:23.020Z,102939.34
2019-01-06T06:23:54.181Z,102944.65
2019-01-06T06:26:37.753Z,102946.83
2019-01-06T06:29:15.530Z,102951.45
2019-01-06T06:31:58.904Z,102947.09
2019-01-06T06:34:47.254Z,102945.75
2019-01-06T06:37:28.112Z,102952.48
2019-01-06T06:40:10.165Z,102956.05
2019-01-06T06:42:53.670Z,102951.13
2019-01-06T06:45:34.576Z,102951.28
2019-01-06T06:48:15.930Z,102955.47
2019-01-06T06:51:14.747Z,102945.41
2019-01-06T06:54:01.017Z,102954.98
2019-01-06T06:56:38.144Z,102952.47
2019-01-06T06:59:15.978Z,102949.53
2019-01-06T07:02:22.841Z,102956.80
2019-01-06T07:05:06.857Z,102952.52
2019-01-06T07:07:38.095Z,102948.30
2019-01-06T07:10:09.321Z,102946.66
2019-01-06T07:12:51.811Z,102957.58
2019-01-06T07:15:31.250Z,102960.73
2019-01-06T07:18:12.079Z,102947.61
2019-01-06T07:20:52.190Z,102953.79
2019-01-06T07:23:38.794Z,102950.30
2019-01-06T07:26:26.252Z,102956.84
2019-01-06T07:29:14.607Z,102954.23
2019-01-06T07:31:45.839Z,102956.84
2019-01-06T07:34:33.746Z,102952.41
2019-01-06T07:37:04.801Z,102957.31
2019-01-06T07:39:51.251Z,102959.68
2019-01-06T07:42:30.813Z,102963.64
2019-01-06T07:45:18.606Z,102963.50
2019-01-06T07:47:49.891Z,102961.28
2019-01-06T07:50:27.707Z,102964.19
2019-01-06T07:53:17.607Z,102968.38
2019-01-06T07:55:48.979Z,102970.66
2019-01-06T07:58:21.107Z,102975.42
2019-01-06T08:00:59.258Z,102969.45
2019-01-06T08:03:44.638Z,102967.30
2019-01-06T08:06:34.151Z,102974.36
2019-01-06T08:09:06.686Z,102971.12
2019-01-06T08:11:55.388Z,102985.78
2019-01-06T08:14:43.652Z,102982.55
2019-01-06T08:17:21.073Z,102983.71
2019-01-06T08:20:01.300Z,102984.84
2019-01-06T08:22:51.535Z,102986.52
2019-01-06T08:25:41.496Z,102990.27
2019-01-06T08:28:24.786Z,102992.16
2019-01-06T08:31:13.608Z,102999.47
2019-01-06T08:33:47.130Z,102993.79
2019-01-06T08:36:27.365Z,102992.91
2019-01-06T08:39:03.765Z,102988.91
2019-01-06T08:41:51.927Z,102988.89
2019-01-06T08:44:29.363Z,102991.13
2019-01-06T08:47:00.579Z,102990.24
2019-01-06T08:49:31.831Z,102991.61
2019-01-06T08:52:02.751Z,102993.99
2019-01-06T08:54:50.834Z,102998.75
2019-01-06T08:57:21.984Z,102997.06
2019-01-06T09:00:10.256Z,103000.72
2019-01-06T09:02:57.960Z,102998.94
2019-01-06T09:05:46.156Z,103002.59
2019-01-06T09:08:26.855Z,103005.09
2019-01-06T09:11:10.613Z,103003.10
2019-01-06T09:13:48.496Z,103005.52
2019-01-06T09:16:26.181Z,103008.31
2019-01-06T09:19:14.523Z,103004.00
2019-01-06T09:22:02.767Z,103008.13
2019-01-06T09:24:33.810Z,103008.61
2019-01-06T09:27:10.240Z,103011.77
2019-01-06T09:29:50.883Z,103010.91
2019-01-06T09:32:40.396Z,103002.85
2019-01-06T09:35:12.237Z,103011.52
2019-01-06T09:37:43.433Z,103010.80
2019-01-06T09:40:31.593Z,103010.34
2019-01-06T09:43:19.362Z,103010.08
2019-01-06T09:46:10.001Z,103007.47
2019-01-06T09:48:45.574Z,103010.37
2019-01-06T09:51:19.486Z,103006.87
2019-01-06T09:53:50.354Z,103003.64
2019-01-06T09:56:34.100Z,102999.42
2019-01-06T09:59:23.588Z,102997.98
2019-01-06T10:02:10.626Z,103002.69
2019-01-06T10:04:57.228Z,102998.78
2019-01-06T10:07:28.340Z,102994.88
2019-01-06T10:10:05.528Z,103002.27
2019-01-06T10:12:44.871Z,102995.69
2019-01-06T10:15:28.252Z,102993.27
2019-01-06T10:18:02.894Z,102999.28
2019-01-06T10:20:43.677Z,102994.05
2019-01-06T10:23:17.087Z,102984.77
2019-01-06T10:26:05.521Z,102986.80
2019-01-06T10:28:54.864Z,102982.75
2019-01-06T10:31:41.362Z,102974.05
2019-01-06T10:34:30.960Z,102975.77
2019-01-06T10:37:11.421Z,102976.54
2019-01-06T10:39:57.689Z,102969.22
2019-01-06T10:42:32.042Z,102967.52
2019-01-06T10:45:03.096Z,102968.83
2019-01-06T10:47:51.804Z,102972.05
2019-01-06T10:50:22.763Z,102964.91
2019-01-06T10:52:53.987Z,102964.19
2019-01-06T10:55:42.192Z,102959.23
2019-01-06T10:58:30.402Z,102959.55
2019-01-06T11:01:07.563Z,102952.47
2019-01-06T11:03:46.704Z,102949.45
2019-01-06T11:06:27.542Z,102953.33
2019-01-06T11:08:58.531Z,102948.17
2019-01-06T11:11:47.920Z,102942.80
2019-01-06T11:14:19.404Z,102937.75
2019-01-06T11:17:09.417Z,102939.25
2019-01-06T11:19:40.883Z,102923.70
2019-01-06T11:22:18.890Z,102925.03
2019-01-06T11:24:56.639Z,102922.37
2019-01-06T11:27:44.829Z,102919.33
2019-01-06T11:30:51.639Z,102914.02
2019-01-06T11:33:29.108Z,102902.49
2019-01-06T11:36:09.847Z,102899.38
2019-01-06T11:38:41.800Z,102897.28
2019-01-06T11:41:29.973Z,102900.34
2019-01-06T11:44:09.377Z,102889.29
2019-01-06T11:46:43.447Z,102889.91
2019-01-06T11:49:24.407Z,102878.28
2019-01-06T11:52:11.169Z,102878.02
2019-01-06T11:54:51.831Z,102873.50
2019-01-06T11:57:29.531Z,102873.75
2019-01-06T12:00:00.912Z,102869.91
2019-01-06T12:02:41.065Z,102867.04
2019-01-06T12:05:21.015Z,102860.36
2019-01-06T12:08:09.627Z,102853.30
2019-01-06T12:10:40.762Z,102848.69
2019-01-06T12:13:18.018Z,102853.22
2019-01-06T12:15:55.648Z,102849.67
2019-01-06T12:18:32.997Z,102843.49
2019-01-06T12:21:10.765Z,102832.41
2019-01-06T12:23:48.436Z,102827.05
2019-01-06T12:26:36.793Z,102826.38
2019-01-06T12:29:16.841Z,102822.24
2019-01-06T12:31:55.980Z,102818.77
2019-01-06T12:34:39.795Z,102814.30
2019-01-06T12:37:10.904Z,102816.44
2019-01-06T12:39:48.685Z,102808.34
2019-01-06T12:42:36.860Z,102806.09
2019-01-06T12:45:14.353Z,102810.39
2019-01-06T12:47:45.649Z,102798.75
2019-01-06T12:50:26.223Z,102796.84
2019-01-06T12:53:01.576Z,102796.08
2019-01-06T12:55:41.707Z,102790.41
2019-01-06T12:58:19.845Z,102784.35
2019-01-06T13:01:08.191Z,102785.55
2019-01-06T13:03:55.195Z,102778.67
2019-01-06T13:06:32.208Z,102780.97
2019-01-06T13:09:12.783Z,102776.56
2019-01-06T13:12:02.062Z,102778.08
2019-01-06T13:14:51.804Z,102774.81
2019-01-06T13:17:28.368Z,102778.78
2019-01-06T13:20:16.586Z,102770.06
2019-01-06T13:23:06.255Z,102766.16
2019-01-06T13:25:37.832Z,102764.59
2019-01-06T13:28:09.317Z,102758.09
2019-01-06T13:30:47.772Z,102754.86
2019-01-06T13:33:34.322Z,102758.52
2019-01-06T13:36:09.123Z,102756.73
2019-01-06T13:38:39.583Z,102757.56
2019-01-06T13:41:26.768Z,102746.99
2019-01-06T13:44:15.246Z,102753.09
2019-01-06T14:02:58.469Z,102739.94
2019-01-06T14:05:42.503Z,102733.16
2019-01-06T14:08:26.213Z,102737.23
2019-01-06T14:11:03.890Z,102733.69
2019-01-06T14:13:42.837Z,102725.63
2019-01-06T14:16:21.694Z,102722.30
2019-01-06T14:18:53.137Z,102724.98
2019-01-06T14:21:37.018Z,102720.05
2019-01-06T14:24:08.359Z,102730.54
2019-01-06T14:26:43.659Z,102722.08
2019-01-06T14:29:15.090Z,102723.67
2019-01-06T14:31:58.652Z,102721.59
2019-01-06T14:34:33.630Z,102724.58
2019-01-06T14:37:23.122Z,102732.81
2019-01-06T17:16:23.264Z,102742.56
2019-01-06T17:21:34.186Z,102743.20
2019-01-06T17:24:07.807Z,102750.64
2019-01-06T17:26:41.586Z,102750.72
2019-01-06T17:29:15.499Z,102753.53
2019-01-06T17:31:58.455Z,102753.28
2019-01-06T17:34:31.585Z,102756.63
2019-01-06T17:37:02.021Z,102748.63
2019-01-06T17:39:32.660Z,102756.30
2019-01-06T17:42:05.714Z,102753.95
2019-01-06T17:44:36.180Z,102751.09
2019-01-06T17:47:22.755Z,102758.47
2019-01-06T17:49:53.412Z,102760.24
2019-01-06T17:52:33.100Z,102765.07
2019-01-06T17:55:21.699Z,102768.20
2019-01-06T17:57:55.221Z,102759.44
2019-01-06T18:00:34.756Z,102763.40
2019-01-06T18:03:05.287Z,102762.03
2019-01-06T18:05:51.716Z,102764.75
2019-01-06T18:08:25.113Z,102766.08
2019-01-06T18:10:55.499Z,102765.54
2019-01-06T18:13:35.151Z,102771.84
2019-01-06T18:16:05.598Z,102766.31
2019-01-06T18:18:36.518Z,102772.28
2019-01-06T18:21:16.327Z,102775.91
2019-01-06T18:23:58.883Z,102780.02
2019-01-06T18:26:29.521Z,102778.64
2019-01-06T18:29:03.362Z,102775.53
2019-01-06T18:31:50.485Z,102773.05
2019-01-06T18:34:24.160Z,102774.86
2019-01-06T18:37:12.259Z,102776.97
2019-01-06T18:39:42.691Z,102775.41
2019-01-06T18:42:20.157Z,102773.80
2019-01-06T18:45:09.173Z,102776.80
2019-01-06T18:47:41.109Z,102777.11
2019-01-06T18:50:28.095Z,102777.03
2019-01-06T18:52:58.872Z,102778.36
2019-01-06T18:55:46.224Z,102780.16
2019-01-06T18:58:33.733Z,102790.57
2019-01-06T19:01:04.151Z,102794.19
2019-01-06T19:03:40.503Z,102785.86
2019-01-06T19:06:11.694Z,102791.20
2019-01-06T19:08:46.243Z,102788.98
2019-01-06T19:11:23.208Z,102788.26
2019-01-06T19:14:02.850Z,102788.81
2019-01-06T19:16:36.395Z,102791.79
2019-01-06T19:19:22.856Z,102795.38
2019-01-06T19:22:10.665Z,102796.83
2019-01-06T19:24:45.393Z,102795.10
2019-01-06T19:27:32.833Z,102796.53
2019-01-06T19:30:20.692Z,102797.19
2019-01-06T19:33:09.219Z,102791.63
2019-01-06T19:35:40.714Z,102801.84
2019-01-06T19:38:14.294Z,102798.80
2019-01-06T19:41:03.441Z,102796.41
2019-01-06T19:43:43.237Z,102795.11
2019-01-06T19:46:19.756Z,102798.97
2019-01-06T19:48:56.495Z,102797.69
2019-01-06T19:51:27.429Z,102798.16
2019-01-06T19:54:03.877Z,102803.33
2019-01-06T19:56:37.026Z,102803.51
2019-01-06T19:59:17.048Z,102802.28
2019-01-06T20:01:51.487Z,102793.69
2019-01-06T20:04:40.884Z,102789.77
2019-01-06T20:07:18.712Z,102793.23
2019-01-06T20:10:05.335Z,102793.14
2019-01-06T20:12:39.223Z,102790.69
2019-01-06T20:15:16.932Z,102782.78
2019-01-06T20:17:57.432Z,102787.73
2019-01-06T20:20:32.633Z,102789.58
2019-01-06T20:23:10.578Z,102785.28
2019-01-06T20:25:57.346Z,102791.77
2019-01-06T20:28:36.009Z,102790.62
2019-01-06T20:31:20.156Z,102796.08
2019-01-06T20:34:08.942Z,102791.72
2019-01-06T20:36:40.921Z,102792.91
2019-01-06T20:39:24.870Z,102784.27
2019-01-06T20:42:10.596Z,102783.63
2019-01-06T20:45:00.933Z,102790.36
2019-01-06T20:47:39.231Z,102783.44
2019-01-06T20:50:11.678Z,102778.75
2019-01-06T20:52:51.449Z,102778.84
2019-01-06T20:55:31.391Z,102784.67
2019-01-06T20:58:16.903Z,102779.44
2019-01-06T21:00:50.490Z,102780.62
2019-01-06T21:03:39.505Z,102785.43
2019-01-06T21:06:28.129Z,102776.23
2019-01-06T21:09:05.461Z,102785.80
2019-01-06T21:11:48.569Z,102781.24
2019-01-06T21:14:31.837Z,102785.02
2019-01-06T21:17:19.638Z,102788.15
2019-01-06T21:19:54.586Z,102787.27
2019-01-06T21:22:42.701Z,102788.70
2019-01-06T21:25:14.036Z,102787.53
2019-01-06T21:27:44.978Z,102799.98
2019-01-06T21:30:21.492Z,102794.16
2019-01-06T21:33:08.795Z,102799.51
2019-01-06T21:35:52.367Z,102802.33
2019-01-06T21:38:27.705Z,102800.25
2019-01-06T21:41:01.278Z,102797.62
2019-01-06T21:43:32.565Z,102797.22
2019-01-06T21:46:20.454Z,102808.93
2019-01-06T21:49:08.925Z,102806.45
2019-01-06T21:51:40.073Z,102806.59
2019-01-06T21:54:17.955Z,102803.27
2019-01-06T21:57:08.070Z,102797.48
2019-01-06T21:59:48.468Z,102802.70
2019-01-06T22:02:32.341Z,102801.72
2019-01-06T22:05:03.012Z,102794.55
2019-01-06T22:07:43.469Z,102796.94
2019-01-06T22:10:30.338Z,102795.09
2019-01-06T22:13:01.423Z,102798.06
2019-01-06T22:15:51.630Z,102795.73
2019-01-06T22:18:35.280Z,102794.87
2019-01-06T22:21:15.340Z,102788.59
2019-01-06T22:24:02.653Z,102785.86
2019-01-06T22:26:51.080Z,102783.49
2019-01-06T22:29:38.038Z,102793.04
2019-01-06T22:32:25.080Z,102790.19
2019-01-06T22:35:02.060Z,102786.47
2019-01-06T22:37:55.718Z,102789.17
2019-01-06T22:40:33.239Z,102779.30
2019-01-06T22:43:07.572Z,102783.25
2019-01-06T22:45:44.609Z,102784.97
2019-01-06T22:48:22.085Z,102774.09
2019-01-06T22:50:55.584Z,102780.14
2019-01-06T22:53:45.621Z,102772.97
2019-01-06T22:56:33.842Z,102777.80
2019-01-06T22:59:13.623Z,102775.21
2019-01-06T23:01:45.081Z,102775.11
2019-01-06T23:04:18.635Z,102786.73
2019-01-06T23:07:07.299Z,102773.25
2019-01-06T23:09:55.856Z,102772.86
2019-01-06T23:12:27.156Z,102774.33
2019-01-06T23:15:03.130Z,102772.71
2019-01-06T23:17:34.910Z,102776.08
2019-01-06T23:20:05.830Z,102773.10
2019-01-06T23:22:45.303Z,102783.47
2019-01-06T23:25:30.736Z,102776.88
2019-01-06T23:28:04.153Z,102785.42
2019-01-06T23:30:47.901Z,102784.27
2019-01-06T23:33:19.124Z,102774.63
2019-01-06T23:35:59.214Z,102777.69
2019-01-06T23:38:47.427Z,102767.03
2019-01-06T23:41:36.006Z,102769.37
2019-01-06T23:44:15.962Z,102759.23
2019-01-06T23:47:04.602Z,102761.08
2019-01-06T23:49:52.619Z,102763.30
2019-01-06T23:52:23.718Z,102757.98
2019-01-06T23:55:06.774Z,102758.09
2019-01-06T23:57:37.996Z,102755.99
